sensor_id;sensor_type;location;lat;lon;timestamp;P1;durP1;ratioP1;P2;durP2;ratioP2
70535;SDS011;58089;48.752;11.338;2022-09-23T00:01:04;5.67;;;2.47;;
70535;SDS011;58089;48.752;11.338;2022-09-23T00:03:31;5.47;;;2.45;;
70535;SDS011;58089;48.752;11.338;2022-09-23T00:05:57;5.70;;;2.72;;
70535;SDS011;58089;48.752;11.338;2022-09-23T00:08:23;6.68;;;2.85;;
70535;SDS011;58089;48.752;11.338;2022-09-23T00:10:48;5.67;;;2.40;;
70535;SDS011;58089;48.752;11.338;2022-09-23T00:13:13;5.35;;;2.10;;
70535;SDS011;58089;48.752;11.338;2022-09-23T00:15:38;6.40;;;2.50;;
70535;SDS011;58089;48.752;11.338;2022-09-23T00:18:03;7.10;;;2.33;;
70535;SDS011;58089;48.752;11.338;2022-09-23T00:20:29;5.47;;;2.50;;
70535;SDS011;58089;48.752;11.338;2022-09-23T00:22:56;5.10;;;2.20;;
70535;SDS011;58089;48.752;11.338;2022-09-23T00:25:21;4.83;;;2.13;;
70535;SDS011;58089;48.752;11.338;2022-09-23T00:27:46;5.77;;;2.40;;
70535;SDS011;58089;48.752;11.338;2022-09-23T00:30:12;5.38;;;2.47;;
70535;SDS011;58089;48.752;11.338;2022-09-23T00:32:37;5.23;;;2.40;;
70535;SDS011;58089;48.752;11.338;2022-09-23T00:35:02;5.00;;;2.42;;
70535;SDS011;58089;48.752;11.338;2022-09-23T00:37:28;4.93;;;2.37;;
70535;SDS011;58089;48.752;11.338;2022-09-23T00:39:53;5.27;;;2.43;;
70535;SDS011;58089;48.752;11.338;2022-09-23T00:42:20;5.40;;;2.30;;
70535;SDS011;58089;48.752;11.338;2022-09-23T00:47:15;5.22;;;2.38;;
70535;SDS011;58089;48.752;11.338;2022-09-23T00:49:43;6.30;;;2.35;;
70535;SDS011;58089;48.752;11.338;2022-09-23T00:52:10;6.57;;;2.20;;
70535;SDS011;58089;48.752;11.338;2022-09-23T00:54:36;5.18;;;2.38;;
70535;SDS011;58089;48.752;11.338;2022-09-23T00:57:02;5.33;;;2.27;;
70535;SDS011;58089;48.752;11.338;2022-09-23T00:59:30;7.40;;;2.55;;
70535;SDS011;58089;48.752;11.338;2022-09-23T01:01:56;5.40;;;2.55;;
70535;SDS011;58089;48.752;11.338;2022-09-23T01:04:23;5.20;;;2.25;;
70535;SDS011;58089;48.752;11.338;2022-09-23T01:06:49;4.68;;;2.17;;
70535;SDS011;58089;48.752;11.338;2022-09-23T01:09:14;5.17;;;2.13;;
70535;SDS011;58089;48.752;11.338;2022-09-23T01:11:52;4.63;;;2.20;;
70535;SDS011;58089;48.752;11.338;2022-09-23T01:25:20;5.10;;;2.10;;
70535;SDS011;58089;48.752;11.338;2022-09-23T01:35:17;6.07;;;2.40;;
70535;SDS011;58089;48.752;11.338;2022-09-23T01:37:47;4.93;;;2.25;;
70535;SDS011;58089;48.752;11.338;2022-09-23T01:43:15;5.30;;;2.20;;
70535;SDS011;58089;48.752;11.338;2022-09-23T01:45:44;4.80;;;2.13;;
70535;SDS011;58089;48.752;11.338;2022-09-23T01:48:17;6.32;;;2.28;;
70535;SDS011;58089;48.752;11.338;2022-09-23T01:50:52;5.28;;;2.40;;
70535;SDS011;58089;48.752;11.338;2022-09-23T01:53:36;4.60;;;2.13;;
70535;SDS011;58089;48.752;11.338;2022-09-23T01:56:05;5.40;;;2.25;;
70535;SDS011;58089;48.752;11.338;2022-09-23T01:58:38;5.07;;;2.40;;
70535;SDS011;58089;48.752;11.338;2022-09-23T02:01:06;5.03;;;2.13;;
70535;SDS011;58089;48.752;11.338;2022-09-23T02:03:54;5.78;;;2.25;;
70535;SDS011;58089;48.752;11.338;2022-09-23T02:06:27;5.30;;;2.20;;
70535;SDS011;58089;48.752;11.338;2022-09-23T02:08:57;4.85;;;2.05;;
70535;SDS011;58089;48.752;11.338;2022-09-23T02:11:24;5.30;;;2.20;;
70535;SDS011;58089;48.752;11.338;2022-09-23T02:13:53;5.10;;;2.40;;
70535;SDS011;58089;48.752;11.338;2022-09-23T02:21:56;5.23;;;2.27;;
70535;SDS011;58089;48.752;11.338;2022-09-23T02:24:26;5.20;;;2.03;;
70535;SDS011;58089;48.752;11.338;2022-09-23T02:26:54;6.82;;;2.28;;
70535;SDS011;58089;48.752;11.338;2022-09-23T02:29:20;4.63;;;1.90;;
70535;SDS011;58089;48.752;11.338;2022-09-23T02:34:27;4.88;;;1.98;;
70535;SDS011;58089;48.752;11.338;2022-09-23T02:39:27;5.35;;;2.47;;
70535;SDS011;58089;48.752;11.338;2022-09-23T02:41:56;5.03;;;2.22;;
70535;SDS011;58089;48.752;11.338;2022-09-23T02:44:22;5.97;;;2.38;;
70535;SDS011;58089;48.752;11.338;2022-09-23T02:46:48;5.57;;;2.27;;
70535;SDS011;58089;48.752;11.338;2022-09-23T02:49:26;5.07;;;2.20;;
70535;SDS011;58089;48.752;11.338;2022-09-23T02:51:53;5.10;;;2.22;;
70535;SDS011;58089;48.752;11.338;2022-09-23T02:54:23;6.67;;;2.40;;
70535;SDS011;58089;48.752;11.338;2022-09-23T02:56:49;5.07;;;2.17;;
70535;SDS011;58089;48.752;11.338;2022-09-23T02:59:16;4.87;;;2.10;;
70535;SDS011;58089;48.752;11.338;2022-09-23T03:01:53;5.00;;;2.10;;
70535;SDS011;58089;48.752;11.338;2022-09-23T03:07:15;5.07;;;2.20;;
70535;SDS011;58089;48.752;11.338;2022-09-23T03:09:47;6.50;;;2.10;;
70535;SDS011;58089;48.752;11.338;2022-09-23T03:14:53;5.70;;;2.20;;
70535;SDS011;58089;48.752;11.338;2022-09-23T03:17:23;5.10;;;2.05;;
70535;SDS011;58089;48.752;11.338;2022-09-23T03:19:53;5.72;;;2.45;;
70535;SDS011;58089;48.752;11.338;2022-09-23T03:22:21;4.60;;;1.98;;
70535;SDS011;58089;48.752;11.338;2022-09-23T03:24:47;5.20;;;2.20;;
70535;SDS011;58089;48.752;11.338;2022-09-23T03:27:14;6.75;;;2.45;;
70535;SDS011;58089;48.752;11.338;2022-09-23T03:29:47;5.03;;;1.90;;
70535;SDS011;58089;48.752;11.338;2022-09-23T03:32:13;6.43;;;2.50;;
70535;SDS011;58089;48.752;11.338;2022-09-23T03:34:40;5.03;;;2.13;;
70535;SDS011;58089;48.752;11.338;2022-09-23T03:37:07;5.18;;;2.13;;
70535;SDS011;58089;48.752;11.338;2022-09-23T03:40:20;7.72;;;2.20;;
70535;SDS011;58089;48.752;11.338;2022-09-23T03:42:24;5.70;;;2.20;;
70535;SDS011;58089;48.752;11.338;2022-09-23T03:44:53;19.83;;;3.03;;
70535;SDS011;58089;48.752;11.338;2022-09-23T03:47:21;5.32;;;2.28;;
70535;SDS011;58089;48.752;11.338;2022-09-23T03:49:48;5.38;;;2.50;;
70535;SDS011;58089;48.752;11.338;2022-09-23T03:52:14;5.40;;;2.50;;
70535;SDS011;58089;48.752;11.338;2022-09-23T03:54:39;5.40;;;2.63;;
70535;SDS011;58089;48.752;11.338;2022-09-23T03:57:04;6.03;;;2.40;;
70535;SDS011;58089;48.752;11.338;2022-09-23T03:59:31;5.43;;;2.63;;
70535;SDS011;58089;48.752;11.338;2022-09-23T04:01:56;5.57;;;2.40;;
70535;SDS011;58089;48.752;11.338;2022-09-23T04:04:23;6.45;;;2.53;;
70535;SDS011;58089;48.752;11.338;2022-09-23T04:06:48;6.77;;;2.60;;
70535;SDS011;58089;48.752;11.338;2022-09-23T04:09:13;5.33;;;2.33;;
70535;SDS011;58089;48.752;11.338;2022-09-23T04:11:38;7.00;;;2.70;;
70535;SDS011;58089;48.752;11.338;2022-09-23T04:14:04;5.03;;;2.30;;
70535;SDS011;58089;48.752;11.338;2022-09-23T04:16:29;5.20;;;2.50;;
70535;SDS011;58089;48.752;11.338;2022-09-23T04:18:54;5.35;;;2.42;;
70535;SDS011;58089;48.752;11.338;2022-09-23T04:21:20;5.47;;;2.42;;
70535;SDS011;58089;48.752;11.338;2022-09-23T04:23:45;6.93;;;2.60;;
70535;SDS011;58089;48.752;11.338;2022-09-23T04:26:10;10.40;;;4.10;;
70535;SDS011;58089;48.752;11.338;2022-09-23T04:28:35;12.50;;;4.83;;
70535;SDS011;58089;48.752;11.338;2022-09-23T04:31:04;6.72;;;3.38;;
70535;SDS011;58089;48.752;11.338;2022-09-23T04:33:29;5.68;;;2.85;;
70535;SDS011;58089;48.752;11.338;2022-09-23T04:35:55;6.13;;;3.00;;
70535;SDS011;58089;48.752;11.338;2022-09-23T04:38:20;8.33;;;3.00;;
70535;SDS011;58089;48.752;11.338;2022-09-23T04:40:46;6.40;;;2.53;;
70535;SDS011;58089;48.752;11.338;2022-09-23T04:43:11;13.83;;;7.30;;
70535;SDS011;58089;48.752;11.338;2022-09-23T04:45:38;9.93;;;4.20;;
70535;SDS011;58089;48.752;11.338;2022-09-23T04:48:03;14.63;;;6.07;;
70535;SDS011;58089;48.752;11.338;2022-09-23T04:50:29;6.80;;;3.87;;
70535;SDS011;58089;48.752;11.338;2022-09-23T04:52:56;9.60;;;4.00;;
70535;SDS011;58089;48.752;11.338;2022-09-23T04:55:21;5.47;;;2.60;;
70535;SDS011;58089;48.752;11.338;2022-09-23T04:57:46;7.03;;;2.80;;
70535;SDS011;58089;48.752;11.338;2022-09-23T05:00:12;7.00;;;2.57;;
70535;SDS011;58089;48.752;11.338;2022-09-23T05:02:42;7.00;;;2.75;;
70535;SDS011;58089;48.752;11.338;2022-09-23T05:05:08;5.55;;;2.55;;
70535;SDS011;58089;48.752;11.338;2022-09-23T05:07:33;5.93;;;2.50;;
70535;SDS011;58089;48.752;11.338;2022-09-23T05:09:59;6.97;;;2.80;;
70535;SDS011;58089;48.752;11.338;2022-09-23T05:12:24;6.37;;;2.50;;
70535;SDS011;58089;48.752;11.338;2022-09-23T05:14:50;9.10;;;2.90;;
70535;SDS011;58089;48.752;11.338;2022-09-23T05:17:15;5.40;;;1.90;;
70535;SDS011;58089;48.752;11.338;2022-09-23T05:19:40;7.93;;;2.63;;
70535;SDS011;58089;48.752;11.338;2022-09-23T05:22:06;5.90;;;2.40;;
70535;SDS011;58089;48.752;11.338;2022-09-23T05:24:31;6.30;;;3.07;;
70535;SDS011;58089;48.752;11.338;2022-09-23T05:26:56;5.87;;;2.67;;
70535;SDS011;58089;48.752;11.338;2022-09-23T05:29:21;6.00;;;2.87;;
70535;SDS011;58089;48.752;11.338;2022-09-23T05:31:47;5.47;;;2.50;;
70535;SDS011;58089;48.752;11.338;2022-09-23T05:34:12;6.68;;;2.80;;
70535;SDS011;58089;48.752;11.338;2022-09-23T05:36:37;10.10;;;3.30;;
70535;SDS011;58089;48.752;11.338;2022-09-23T05:39:02;10.98;;;3.60;;
70535;SDS011;58089;48.752;11.338;2022-09-23T05:41:28;6.47;;;2.70;;
70535;SDS011;58089;48.752;11.338;2022-09-23T05:43:53;6.60;;;3.27;;
70535;SDS011;58089;48.752;11.338;2022-09-23T05:46:19;7.13;;;3.17;;
70535;SDS011;58089;48.752;11.338;2022-09-23T05:48:45;6.38;;;2.60;;
70535;SDS011;58089;48.752;11.338;2022-09-23T05:51:18;6.03;;;2.88;;
70535;SDS011;58089;48.752;11.338;2022-09-23T05:53:44;6.30;;;2.83;;
70535;SDS011;58089;48.752;11.338;2022-09-23T05:56:16;8.00;;;2.60;;
70535;SDS011;58089;48.752;11.338;2022-09-23T05:58:42;5.95;;;2.70;;
70535;SDS011;58089;48.752;11.338;2022-09-23T06:01:12;7.03;;;3.10;;
70535;SDS011;58089;48.752;11.338;2022-09-23T06:03:38;7.57;;;3.22;;
70535;SDS011;58089;48.752;11.338;2022-09-23T06:06:03;7.97;;;3.77;;
70535;SDS011;58089;48.752;11.338;2022-09-23T06:08:28;8.87;;;4.20;;
70535;SDS011;58089;48.752;11.338;2022-09-23T06:10:53;8.63;;;4.33;;
70535;SDS011;58089;48.752;11.338;2022-09-23T06:13:18;10.60;;;4.72;;
70535;SDS011;58089;48.752;11.338;2022-09-23T06:15:44;10.90;;;5.40;;
70535;SDS011;58089;48.752;11.338;2022-09-23T06:18:09;13.03;;;6.60;;
70535;SDS011;58089;48.752;11.338;2022-09-23T06:20:35;12.63;;;6.97;;
70535;SDS011;58089;48.752;11.338;2022-09-23T06:23:04;13.30;;;7.53;;
70535;SDS011;58089;48.752;11.338;2022-09-23T06:25:30;10.10;;;6.32;;
70535;SDS011;58089;48.752;11.338;2022-09-23T06:27:56;11.27;;;7.07;;
70535;SDS011;58089;48.752;11.338;2022-09-23T06:30:21;11.40;;;7.50;;
70535;SDS011;58089;48.752;11.338;2022-09-23T06:32:48;14.90;;;7.70;;
70535;SDS011;58089;48.752;11.338;2022-09-23T06:35:14;14.63;;;9.40;;
70535;SDS011;58089;48.752;11.338;2022-09-23T06:37:39;16.87;;;9.93;;
70535;SDS011;58089;48.752;11.338;2022-09-23T06:40:04;13.63;;;8.43;;
70535;SDS011;58089;48.752;11.338;2022-09-23T06:42:30;13.97;;;8.67;;
70535;SDS011;58089;48.752;11.338;2022-09-23T06:44:55;10.77;;;6.03;;
70535;SDS011;58089;48.752;11.338;2022-09-23T06:47:20;9.70;;;6.47;;
70535;SDS011;58089;48.752;11.338;2022-09-23T06:49:46;10.67;;;6.53;;
70535;SDS011;58089;48.752;11.338;2022-09-23T06:52:11;12.70;;;6.33;;
70535;SDS011;58089;48.752;11.338;2022-09-23T06:54:36;10.50;;;5.80;;
70535;SDS011;58089;48.752;11.338;2022-09-23T06:57:02;9.50;;;5.78;;
70535;SDS011;58089;48.752;11.338;2022-09-23T06:59:27;10.43;;;6.73;;
70535;SDS011;58089;48.752;11.338;2022-09-23T07:01:52;10.10;;;6.80;;
70535;SDS011;58089;48.752;11.338;2022-09-23T07:04:17;13.63;;;6.97;;
70535;SDS011;58089;48.752;11.338;2022-09-23T07:06:42;11.03;;;5.87;;
70535;SDS011;58089;48.752;11.338;2022-09-23T07:09:08;11.17;;;6.37;;
70535;SDS011;58089;48.752;11.338;2022-09-23T07:11:34;13.63;;;6.32;;
70535;SDS011;58089;48.752;11.338;2022-09-23T07:14:00;10.63;;;6.90;;
70535;SDS011;58089;48.752;11.338;2022-09-23T07:16:25;9.77;;;6.67;;
70535;SDS011;58089;48.752;11.338;2022-09-23T07:18:50;12.40;;;6.72;;
70535;SDS011;58089;48.752;11.338;2022-09-23T07:21:17;11.32;;;7.13;;
70535;SDS011;58089;48.752;11.338;2022-09-23T07:23:43;10.80;;;6.37;;
70535;SDS011;58089;48.752;11.338;2022-09-23T07:26:09;13.82;;;6.95;;
70535;SDS011;58089;48.752;11.338;2022-09-23T07:28:35;11.37;;;6.90;;
70535;SDS011;58089;48.752;11.338;2022-09-23T07:31:04;12.57;;;7.20;;
70535;SDS011;58089;48.752;11.338;2022-09-23T07:33:31;11.57;;;7.30;;
70535;SDS011;58089;48.752;11.338;2022-09-23T07:35:56;10.63;;;7.13;;
70535;SDS011;58089;48.752;11.338;2022-09-23T07:38:21;11.47;;;7.47;;
70535;SDS011;58089;48.752;11.338;2022-09-23T07:40:50;10.32;;;6.95;;
70535;SDS011;58089;48.752;11.338;2022-09-23T07:43:15;11.50;;;7.03;;
70535;SDS011;58089;48.752;11.338;2022-09-23T07:45:41;10.00;;;6.33;;
70535;SDS011;58089;48.752;11.338;2022-09-23T07:48:07;10.48;;;6.75;;
70535;SDS011;58089;48.752;11.338;2022-09-23T07:50:32;11.37;;;6.93;;
70535;SDS011;58089;48.752;11.338;2022-09-23T07:52:58;12.03;;;7.37;;
70535;SDS011;58089;48.752;11.338;2022-09-23T07:55:23;11.60;;;7.80;;
70535;SDS011;58089;48.752;11.338;2022-09-23T07:57:48;11.73;;;7.23;;
70535;SDS011;58089;48.752;11.338;2022-09-23T08:00:13;11.23;;;6.60;;
70535;SDS011;58089;48.752;11.338;2022-09-23T08:02:39;10.40;;;6.40;;
70535;SDS011;58089;48.752;11.338;2022-09-23T08:05:05;11.45;;;7.05;;
70535;SDS011;58089;48.752;11.338;2022-09-23T08:07:30;9.88;;;6.20;;
70535;SDS011;58089;48.752;11.338;2022-09-23T08:09:58;13.98;;;7.47;;
70535;SDS011;58089;48.752;11.338;2022-09-23T08:12:23;10.23;;;6.40;;
70535;SDS011;58089;48.752;11.338;2022-09-23T08:14:48;10.23;;;6.20;;
70535;SDS011;58089;48.752;11.338;2022-09-23T08:17:14;10.02;;;6.10;;
70535;SDS011;58089;48.752;11.338;2022-09-23T08:19:39;9.70;;;6.00;;
70535;SDS011;58089;48.752;11.338;2022-09-23T08:22:04;10.73;;;6.40;;
70535;SDS011;58089;48.752;11.338;2022-09-23T08:24:29;9.33;;;5.60;;
70535;SDS011;58089;48.752;11.338;2022-09-23T08:26:56;8.27;;;5.47;;
70535;SDS011;58089;48.752;11.338;2022-09-23T08:29:22;8.53;;;5.50;;
70535;SDS011;58089;48.752;11.338;2022-09-23T08:31:47;10.03;;;5.70;;
70535;SDS011;58089;48.752;11.338;2022-09-23T08:34:14;9.65;;;5.93;;
70535;SDS011;58089;48.752;11.338;2022-09-23T08:36:39;9.90;;;6.60;;
70535;SDS011;58089;48.752;11.338;2022-09-23T08:39:05;9.63;;;5.90;;
70535;SDS011;58089;48.752;11.338;2022-09-23T08:46:46;14.30;;;5.82;;
70535;SDS011;58089;48.752;11.338;2022-09-23T08:49:15;8.73;;;5.57;;
70535;SDS011;58089;48.752;11.338;2022-09-23T08:51:44;7.60;;;4.70;;
70535;SDS011;58089;48.752;11.338;2022-09-23T08:54:10;9.93;;;5.73;;
70535;SDS011;58089;48.752;11.338;2022-09-23T08:56:36;9.30;;;5.47;;
70535;SDS011;58089;48.752;11.338;2022-09-23T08:59:13;7.55;;;5.13;;
70535;SDS011;58089;48.752;11.338;2022-09-23T09:01:40;8.15;;;5.03;;
70535;SDS011;58089;48.752;11.338;2022-09-23T09:11:51;9.03;;;5.60;;
70535;SDS011;58089;48.752;11.338;2022-09-23T09:14:24;7.90;;;4.85;;
70535;SDS011;58089;48.752;11.338;2022-09-23T09:16:57;8.32;;;4.93;;
70535;SDS011;58089;48.752;11.338;2022-09-23T09:20:11;8.20;;;5.43;;
70535;SDS011;58089;48.752;11.338;2022-09-23T09:22:11;9.10;;;5.10;;
70535;SDS011;58089;48.752;11.338;2022-09-23T09:24:37;9.00;;;5.30;;
70535;SDS011;58089;48.752;11.338;2022-09-23T09:27:10;8.27;;;5.15;;
70535;SDS011;58089;48.752;11.338;2022-09-23T09:29:37;9.25;;;4.32;;
70535;SDS011;58089;48.752;11.338;2022-09-23T09:32:11;8.23;;;5.07;;
70535;SDS011;58089;48.752;11.338;2022-09-23T09:34:44;7.72;;;4.47;;
70535;SDS011;58089;48.752;11.338;2022-09-23T09:39:39;7.78;;;4.82;;
70535;SDS011;58089;48.752;11.338;2022-09-23T09:42:04;9.47;;;5.20;;
70535;SDS011;58089;48.752;11.338;2022-09-23T09:44:40;7.97;;;5.00;;
70535;SDS011;58089;48.752;11.338;2022-09-23T09:47:53;10.30;;;4.80;;
70535;SDS011;58089;48.752;11.338;2022-09-23T09:49:53;8.05;;;5.13;;
70535;SDS011;58089;48.752;11.338;2022-09-23T09:52:23;8.40;;;4.38;;
70535;SDS011;58089;48.752;11.338;2022-09-23T09:54:54;7.68;;;4.53;;
70535;SDS011;58089;48.752;11.338;2022-09-23T09:57:35;7.10;;;4.68;;
70535;SDS011;58089;48.752;11.338;2022-09-23T10:00:46;9.40;;;4.20;;
70535;SDS011;58089;48.752;11.338;2022-09-23T10:02:55;13.70;;;4.35;;
70535;SDS011;58089;48.752;11.338;2022-09-23T10:07:49;7.55;;;4.28;;
70535;SDS011;58089;48.752;11.338;2022-09-23T10:10:16;6.90;;;4.27;;
70535;SDS011;58089;48.752;11.338;2022-09-23T10:12:43;6.93;;;4.00;;
70535;SDS011;58089;48.752;11.338;2022-09-23T10:15:24;9.53;;;3.73;;
70535;SDS011;58089;48.752;11.338;2022-09-23T10:17:50;6.68;;;4.05;;
70535;SDS011;58089;48.752;11.338;2022-09-23T10:20:15;7.20;;;3.80;;
70535;SDS011;58089;48.752;11.338;2022-09-23T10:22:41;6.67;;;3.63;;
70535;SDS011;58089;48.752;11.338;2022-09-23T10:25:18;7.43;;;3.67;;
70535;SDS011;58089;48.752;11.338;2022-09-23T10:27:44;7.45;;;4.05;;
70535;SDS011;58089;48.752;11.338;2022-09-23T10:32:47;7.05;;;4.18;;
70535;SDS011;58089;48.752;11.338;2022-09-23T10:35:13;7.35;;;4.13;;
70535;SDS011;58089;48.752;11.338;2022-09-23T10:37:51;6.72;;;3.90;;
70535;SDS011;58089;48.752;11.338;2022-09-23T10:43:13;8.02;;;4.05;;
70535;SDS011;58089;48.752;11.338;2022-09-23T10:46:02;6.78;;;3.85;;
70535;SDS011;58089;48.752;11.338;2022-09-23T10:51:32;5.45;;;2.90;;
70535;SDS011;58089;48.752;11.338;2022-09-23T10:54:23;6.57;;;3.20;;
70535;SDS011;58089;48.752;11.338;2022-09-23T10:56:53;6.25;;;2.95;;
70535;SDS011;58089;48.752;11.338;2022-09-23T11:04:45;5.85;;;3.28;;
70535;SDS011;58089;48.752;11.338;2022-09-23T11:15:31;7.03;;;3.37;;
70535;SDS011;58089;48.752;11.338;2022-09-23T11:20:36;7.10;;;3.42;;
70535;SDS011;58089;48.752;11.338;2022-09-23T11:25:59;7.83;;;3.20;;
70535;SDS011;58089;48.752;11.338;2022-09-23T11:28:31;7.22;;;3.20;;
70535;SDS011;58089;48.752;11.338;2022-09-23T11:31:03;6.03;;;3.28;;
70535;SDS011;58089;48.752;11.338;2022-09-23T11:36:52;7.25;;;3.33;;
70535;SDS011;58089;48.752;11.338;2022-09-23T11:38:51;7.47;;;2.83;;
70535;SDS011;58089;48.752;11.338;2022-09-23T11:41:20;5.72;;;3.10;;
70535;SDS011;58089;48.752;11.338;2022-09-23T11:43:49;6.13;;;3.10;;
70535;SDS011;58089;48.752;11.338;2022-09-23T11:46:30;7.15;;;2.90;;
70535;SDS011;58089;48.752;11.338;2022-09-23T11:49:11;8.32;;;2.92;;
70535;SDS011;58089;48.752;11.338;2022-09-23T11:51:41;15.07;;;3.80;;
70535;SDS011;58089;48.752;11.338;2022-09-23T11:54:10;6.80;;;3.15;;
70535;SDS011;58089;48.752;11.338;2022-09-23T11:56:41;7.47;;;3.50;;
70535;SDS011;58089;48.752;11.338;2022-09-23T11:59:09;6.13;;;2.60;;
70535;SDS011;58089;48.752;11.338;2022-09-23T12:01:51;6.20;;;2.75;;
70535;SDS011;58089;48.752;11.338;2022-09-23T12:06:48;5.93;;;2.80;;
70535;SDS011;58089;48.752;11.338;2022-09-23T12:09:20;4.90;;;2.50;;
70535;SDS011;58089;48.752;11.338;2022-09-23T12:14:43;6.18;;;2.35;;
70535;SDS011;58089;48.752;11.338;2022-09-23T12:17:48;6.03;;;2.80;;
70535;SDS011;58089;48.752;11.338;2022-09-23T12:22:33;5.07;;;2.10;;
70535;SDS011;58089;48.752;11.338;2022-09-23T12:25:49;4.70;;;2.30;;
70535;SDS011;58089;48.752;11.338;2022-09-23T12:27:46;5.20;;;2.45;;
70535;SDS011;58089;48.752;11.338;2022-09-23T12:30:17;4.72;;;2.25;;
70535;SDS011;58089;48.752;11.338;2022-09-23T12:32:43;6.80;;;2.23;;
70535;SDS011;58089;48.752;11.338;2022-09-23T12:35:24;5.53;;;2.47;;
70535;SDS011;58089;48.752;11.338;2022-09-23T12:37:57;5.40;;;2.40;;
70535;SDS011;58089;48.752;11.338;2022-09-23T12:40:30;5.07;;;2.20;;
70535;SDS011;58089;48.752;11.338;2022-09-23T12:42:57;5.75;;;2.78;;
70535;SDS011;58089;48.752;11.338;2022-09-23T12:47:56;6.15;;;2.85;;
70535;SDS011;58089;48.752;11.338;2022-09-23T12:56:24;6.75;;;2.33;;
70535;SDS011;58089;48.752;11.338;2022-09-23T13:01:16;5.50;;;3.10;;
70535;SDS011;58089;48.752;11.338;2022-09-23T13:03:48;8.52;;;3.17;;
70535;SDS011;58089;48.752;11.338;2022-09-23T13:06:46;6.27;;;2.80;;
70535;SDS011;58089;48.752;11.338;2022-09-23T13:09:18;7.53;;;2.67;;
70535;SDS011;58089;48.752;11.338;2022-09-23T13:11:44;5.78;;;2.67;;
70535;SDS011;58089;48.752;11.338;2022-09-23T13:14:11;5.05;;;2.33;;
70535;SDS011;58089;48.752;11.338;2022-09-23T13:16:41;5.30;;;2.80;;
70535;SDS011;58089;48.752;11.338;2022-09-23T13:26:48;5.93;;;2.03;;
70535;SDS011;58089;48.752;11.338;2022-09-23T13:29:15;4.93;;;1.73;;
70535;SDS011;58089;48.752;11.338;2022-09-23T13:31:43;5.40;;;1.60;;
70535;SDS011;58089;48.752;11.338;2022-09-23T13:34:12;4.90;;;1.83;;
70535;SDS011;58089;48.752;11.338;2022-09-23T13:36:43;4.88;;;1.75;;
70535;SDS011;58089;48.752;11.338;2022-09-23T13:39:15;4.63;;;1.73;;
70535;SDS011;58089;48.752;11.338;2022-09-23T13:41:41;4.68;;;1.60;;
70535;SDS011;58089;48.752;11.338;2022-09-23T13:44:08;5.63;;;1.80;;
70535;SDS011;58089;48.752;11.338;2022-09-23T13:46:41;4.23;;;1.63;;
70535;SDS011;58089;48.752;11.338;2022-09-23T13:51:51;5.30;;;1.90;;
70535;SDS011;58089;48.752;11.338;2022-09-23T13:54:31;6.05;;;2.30;;
70535;SDS011;58089;48.752;11.338;2022-09-23T13:56:57;4.93;;;1.95;;
70535;SDS011;58089;48.752;11.338;2022-09-23T13:59:24;5.57;;;2.00;;
70535;SDS011;58089;48.752;11.338;2022-09-23T14:04:50;5.07;;;2.00;;
70535;SDS011;58089;48.752;11.338;2022-09-23T14:07:15;4.20;;;1.90;;
70535;SDS011;58089;48.752;11.338;2022-09-23T14:09:43;5.32;;;2.15;;
70535;SDS011;58089;48.752;11.338;2022-09-23T14:12:08;5.87;;;2.53;;
70535;SDS011;58089;48.752;11.338;2022-09-23T14:14:35;4.78;;;1.90;;
70535;SDS011;58089;48.752;11.338;2022-09-23T14:17:01;6.22;;;1.80;;
70535;SDS011;58089;48.752;11.338;2022-09-23T14:19:27;5.30;;;2.07;;
70535;SDS011;58089;48.752;11.338;2022-09-23T14:21:53;4.40;;;1.87;;
70535;SDS011;58089;48.752;11.338;2022-09-23T14:24:22;6.85;;;1.75;;
70535;SDS011;58089;48.752;11.338;2022-09-23T14:26:50;4.28;;;1.92;;
70535;SDS011;58089;48.752;11.338;2022-09-23T14:29:17;5.20;;;1.85;;
70535;SDS011;58089;48.752;11.338;2022-09-23T14:31:45;6.40;;;1.75;;
70535;SDS011;58089;48.752;11.338;2022-09-23T14:37:13;5.22;;;2.00;;
70535;SDS011;58089;48.752;11.338;2022-09-23T14:39:57;5.38;;;1.85;;
70535;SDS011;58089;48.752;11.338;2022-09-23T14:42:23;5.33;;;2.07;;
70535;SDS011;58089;48.752;11.338;2022-09-23T14:44:48;9.68;;;2.50;;
70535;SDS011;58089;48.752;11.338;2022-09-23T14:47:14;5.38;;;1.98;;
70535;SDS011;58089;48.752;11.338;2022-09-23T14:49:45;5.50;;;2.13;;
70535;SDS011;58089;48.752;11.338;2022-09-23T14:52:30;5.78;;;2.63;;
70535;SDS011;58089;48.752;11.338;2022-09-23T14:54:55;7.80;;;2.80;;
70535;SDS011;58089;48.752;11.338;2022-09-23T14:59:53;6.90;;;3.23;;
70535;SDS011;58089;48.752;11.338;2022-09-23T15:07:38;6.55;;;3.30;;
70535;SDS011;58089;48.752;11.338;2022-09-23T15:10:07;6.13;;;3.53;;
70535;SDS011;58089;48.752;11.338;2022-09-23T15:12:33;7.43;;;3.60;;
70535;SDS011;58089;48.752;11.338;2022-09-23T15:14:59;6.10;;;2.70;;
70535;SDS011;58089;48.752;11.338;2022-09-23T15:17:33;9.43;;;3.80;;
70535;SDS011;58089;48.752;11.338;2022-09-23T15:20:01;8.48;;;3.80;;
70535;SDS011;58089;48.752;11.338;2022-09-23T15:22:26;7.90;;;3.80;;
70535;SDS011;58089;48.752;11.338;2022-09-23T15:24:52;7.33;;;3.50;;
70535;SDS011;58089;48.752;11.338;2022-09-23T15:27:26;8.07;;;3.28;;
70535;SDS011;58089;48.752;11.338;2022-09-23T15:29:51;7.85;;;3.17;;
70535;SDS011;58089;48.752;11.338;2022-09-23T15:32:17;8.50;;;3.27;;
70535;SDS011;58089;48.752;11.338;2022-09-23T15:34:43;11.75;;;3.47;;
70535;SDS011;58089;48.752;11.338;2022-09-23T15:37:09;8.53;;;3.30;;
70535;SDS011;58089;48.752;11.338;2022-09-23T15:39:36;7.68;;;3.13;;
70535;SDS011;58089;48.752;11.338;2022-09-23T15:42:01;5.53;;;2.60;;
70535;SDS011;58089;48.752;11.338;2022-09-23T15:44:26;6.07;;;3.00;;
70535;SDS011;58089;48.752;11.338;2022-09-23T15:46:53;6.40;;;2.60;;
70535;SDS011;58089;48.752;11.338;2022-09-23T15:51:48;9.60;;;3.50;;
70535;SDS011;58089;48.752;11.338;2022-09-23T15:54:16;6.85;;;2.97;;
70535;SDS011;58089;48.752;11.338;2022-09-23T15:56:41;8.13;;;3.07;;
70535;SDS011;58089;48.752;11.338;2022-09-23T15:59:07;7.33;;;3.37;;
70535;SDS011;58089;48.752;11.338;2022-09-23T16:01:34;8.40;;;3.20;;
70535;SDS011;58089;48.752;11.338;2022-09-23T16:04:00;5.53;;;3.10;;
70535;SDS011;58089;48.752;11.338;2022-09-23T16:06:25;5.90;;;3.10;;
70535;SDS011;58089;48.752;11.338;2022-09-23T16:08:51;5.03;;;2.40;;
70535;SDS011;58089;48.752;11.338;2022-09-23T16:11:17;6.70;;;2.10;;
70535;SDS011;58089;48.752;11.338;2022-09-23T16:13:44;6.35;;;2.70;;
70535;SDS011;58089;48.752;11.338;2022-09-23T16:16:09;5.57;;;2.40;;
70535;SDS011;58089;48.752;11.338;2022-09-23T16:18:34;5.37;;;2.60;;
70535;SDS011;58089;48.752;11.338;2022-09-23T16:20:59;8.10;;;3.00;;
70535;SDS011;58089;48.752;11.338;2022-09-23T16:23:26;6.33;;;2.93;;
70535;SDS011;58089;48.752;11.338;2022-09-23T16:28:29;9.67;;;3.57;;
70535;SDS011;58089;48.752;11.338;2022-09-23T16:30:54;9.35;;;4.40;;
70535;SDS011;58089;48.752;11.338;2022-09-23T16:33:19;10.70;;;5.03;;
70535;SDS011;58089;48.752;11.338;2022-09-23T16:35:44;11.23;;;4.70;;
70535;SDS011;58089;48.752;11.338;2022-09-23T16:38:09;12.15;;;5.05;;
70535;SDS011;58089;48.752;11.338;2022-09-23T16:40:35;13.23;;;6.15;;
70535;SDS011;58089;48.752;11.338;2022-09-23T16:43:00;11.88;;;6.25;;
70535;SDS011;58089;48.752;11.338;2022-09-23T16:45:29;11.50;;;5.68;;
70535;SDS011;58089;48.752;11.338;2022-09-23T16:47:55;13.32;;;6.88;;
70535;SDS011;58089;48.752;11.338;2022-09-23T16:50:20;14.60;;;5.53;;
70535;SDS011;58089;48.752;11.338;2022-09-23T16:52:52;12.32;;;4.57;;